Tignish, Canada
Current Conditions -  °F | °C
As of 6:00 AM on Saturday 25 Oct 2014 (Local Time) from CYYG Reporting Station
Drizzle Drizzle  
Wind Chill: 50°   Ceiling: 400
Heat Index: 50°   Visibility: 2.5mi
Dew Point: 50°   Wind: 12mph
Humidity: 100%   Direction: 350°N
Pressure: 29.41"   Gusts: 20mph
Location:  46.95°N, 64.03°W
Report Text: CYYG 250900Z 35010G17KT 2 1/2SM -DZ BR OVC004 10/10 A2941 RMK SF8 SLP960
Loading
Personal Weather Stations






























Interactive Weather Map
Tropical Storm Tracking
New forecast layout! Learn more

10-Day Weather Forecast

Advertisements
Track Severe Weather on mobile